createdAt,value
2018-04-22T00:01:11.297Z,95618.07
2018-04-22T00:03:44.872Z,95621.02
2018-04-22T00:06:17.112Z,95623.47
2018-04-22T00:08:50.224Z,95625.87
2018-04-22T00:11:23.264Z,95622.95
2018-04-22T00:13:57.324Z,95621.33
2018-04-22T00:16:29.386Z,95620.78
2018-04-22T00:19:03.070Z,95620.05
2018-04-22T00:21:32.129Z,95620.77
2018-04-22T00:24:05.265Z,95617.31
2018-04-22T00:26:38.146Z,95616.66
2018-04-22T00:29:19.648Z,95616.92
2018-04-22T00:31:52.309Z,95621.42
2018-04-22T00:34:25.252Z,95618.09
2018-04-22T00:36:57.192Z,95618.77
2018-04-22T00:39:30.039Z,95618.73
2018-04-22T00:42:01.554Z,95616.78
2018-04-22T00:44:35.039Z,95616.96
2018-04-22T00:47:07.862Z,95615.77
2018-04-22T00:49:40.995Z,95612.57
2018-04-22T00:52:14.061Z,95612.08
2018-04-22T00:54:46.366Z,95608.89
2018-04-22T00:57:18.948Z,95606.58
2018-04-22T00:59:51.246Z,95607.42
2018-04-22T01:02:23.531Z,95603.48
2018-04-22T01:07:33.330Z,95603.77
2018-04-22T01:10:05.617Z,95605.87
2018-04-22T01:12:38.313Z,95601.20
2018-04-22T01:15:12.992Z,95593.11
2018-04-22T01:17:42.052Z,95592.17
2018-04-22T01:20:11.110Z,95594.25
2018-04-22T01:22:40.171Z,95591.80
2018-04-22T01:25:09.232Z,95590.21
2018-04-22T01:27:40.134Z,95592.94
2018-04-22T01:30:09.282Z,95594.19
2018-04-22T01:32:38.847Z,95591.12
2018-04-22T01:35:07.924Z,95590.73
2018-04-22T01:37:37.555Z,95591.61
2018-04-22T01:40:06.619Z,95591.19
2018-04-22T01:45:12.003Z,95599.40
2018-04-22T01:47:41.042Z,95590.45
2018-04-22T01:50:10.121Z,95581.70
2018-04-22T01:55:14.945Z,95579.98
2018-04-22T01:57:44.860Z,95580.37
2018-04-22T02:00:14.007Z,95581.11
2018-04-22T02:02:43.607Z,95583.16
2018-04-22T02:05:12.679Z,95585.52
2018-04-22T02:07:42.033Z,95580.38
2018-04-22T02:10:11.079Z,95578.29
2018-04-22T02:12:40.154Z,95579.36
2018-04-22T02:15:09.218Z,95578.77
2018-04-22T02:17:38.587Z,95577.70
2018-04-22T02:20:07.633Z,95575.63
2018-04-22T02:22:36.686Z,95574.19
2018-04-22T02:25:06.677Z,95570.12
2018-04-22T02:27:36.101Z,95569.88
2018-04-22T02:30:05.298Z,95566.25
2018-04-22T02:35:10.134Z,95562.77
2018-04-22T02:37:39.190Z,95561.92
2018-04-22T02:40:09.182Z,95563.72
2018-04-22T02:42:38.246Z,95559.61
2018-04-22T02:45:07.467Z,95560.28
2018-04-22T02:50:13.854Z,95556.33
2018-04-22T02:52:42.889Z,95550.28
2018-04-22T02:55:12.471Z,95546.31
2018-04-22T02:57:41.617Z,95544.93
2018-04-22T03:00:11.074Z,95546.62
2018-04-22T03:02:40.134Z,95542.63
2018-04-22T03:05:09.710Z,95542.52
2018-04-22T03:07:38.762Z,95545.73
2018-04-22T03:10:09.202Z,95545.36
2018-04-22T03:12:38.242Z,95546.30
2018-04-22T03:15:08.058Z,95540.94
2018-04-22T03:17:37.105Z,95544.39
2018-04-22T03:20:06.180Z,95545.73
2018-04-22T03:22:36.228Z,95539.56
2018-04-22T03:25:05.307Z,95537.69
2018-04-22T03:27:34.805Z,95539.39
2018-04-22T03:30:03.859Z,95538.91
2018-04-22T03:32:32.936Z,95540.50
2018-04-22T03:35:02.605Z,95538.16
2018-04-22T03:37:31.655Z,95534.19
2018-04-22T03:40:01.532Z,95538.30
2018-04-22T03:42:34.370Z,95540.31
2018-04-22T03:45:04.007Z,95538.78
2018-04-22T03:47:33.491Z,95538.14
2018-04-22T03:50:02.542Z,95540.45
2018-04-22T03:52:31.738Z,95544.23
2018-04-22T03:55:00.791Z,95541.10
2018-04-22T03:57:30.464Z,95540.77
2018-04-22T03:59:59.514Z,95544.34
2018-04-22T04:02:28.950Z,95541.40
2018-04-22T04:04:57.987Z,95537.44
2018-04-22T04:07:27.708Z,95536.66
2018-04-22T04:09:56.766Z,95541.70
2018-04-22T04:12:26.439Z,95539.34
2018-04-22T04:14:55.511Z,95540.85
2018-04-22T04:17:24.916Z,95541.34
2018-04-22T04:20:11.675Z,95538.19
2018-04-22T04:22:45.430Z,95540.58
2018-04-22T04:28:20.813Z,95539.86
2018-04-22T04:30:50.585Z,95542.91
2018-04-22T04:33:19.590Z,95544.73
2018-04-22T04:35:49.335Z,95543.67
2018-04-22T04:38:18.399Z,95547.25
2018-04-22T04:40:47.916Z,95550.23
2018-04-22T04:43:16.942Z,95552.00
2018-04-22T04:45:46.002Z,95554.06
2018-04-22T04:48:15.056Z,95551.81
2018-04-22T04:53:21.566Z,95556.94
2018-04-22T04:55:50.626Z,95560.77
2018-04-22T04:58:19.863Z,95557.28
2018-04-22T05:00:48.936Z,95563.25
2018-04-22T05:03:18.005Z,95563.65
2018-04-22T05:05:47.176Z,95565.34
2018-04-22T05:08:17.891Z,95565.59
2018-04-22T05:10:47.047Z,95568.76
2018-04-22T05:13:16.629Z,95568.44
2018-04-22T05:15:45.691Z,95572.35
2018-04-22T05:18:15.727Z,95570.73
2018-04-22T05:20:44.802Z,95573.25
2018-04-22T05:23:14.553Z,95567.07
2018-04-22T05:25:43.627Z,95568.64
2018-04-22T05:30:49.314Z,95562.16
2018-04-22T05:35:54.114Z,95564.20
2018-04-22T05:38:23.346Z,95565.02
2018-04-22T05:40:52.365Z,95567.11
2018-04-22T05:43:21.425Z,95567.35
2018-04-22T05:45:50.479Z,95567.95
2018-04-22T05:48:20.708Z,95571.38
2018-04-22T05:50:49.762Z,95571.98
2018-04-22T05:53:19.381Z,95565.30
2018-04-22T05:55:51.054Z,95569.34
2018-04-22T06:00:59.302Z,95568.19
2018-04-22T06:03:31.037Z,95563.70
2018-04-22T06:06:04.269Z,95564.09
2018-04-22T06:08:37.651Z,95565.12
2018-04-22T06:11:12.335Z,95564.67
2018-04-22T06:13:44.584Z,95567.22
2018-04-22T06:16:18.578Z,95564.15
2018-04-22T06:18:57.450Z,95563.11
2018-04-22T06:21:30.778Z,95567.83
2018-04-22T06:24:03.984Z,95565.27
2018-04-22T06:26:36.752Z,95564.72
2018-04-22T06:29:10.088Z,95561.92
2018-04-22T06:31:43.791Z,95562.76
2018-04-22T06:34:16.773Z,95564.52
2018-04-22T06:36:48.496Z,95561.88
2018-04-22T06:39:21.205Z,95561.50
2018-04-22T06:41:55.994Z,95560.61
2018-04-22T06:44:29.152Z,95560.56
2018-04-22T06:47:02.038Z,95560.90
2018-04-22T06:49:33.491Z,95558.16
2018-04-22T06:52:08.023Z,95553.80
2018-04-22T06:54:40.847Z,95558.11
2018-04-22T06:57:13.803Z,95555.59
2018-04-22T06:59:45.849Z,95559.91
2018-04-22T07:04:53.446Z,95560.71
2018-04-22T07:07:25.486Z,95558.76
2018-04-22T07:09:59.487Z,95556.13
2018-04-22T07:12:31.829Z,95557.37
2018-04-22T07:17:40.974Z,95554.64
2018-04-22T07:20:13.601Z,95564.12
2018-04-22T07:22:46.112Z,95557.64
2018-04-22T07:27:54.979Z,95557.20
2018-04-22T07:30:27.503Z,95560.70
2018-04-22T07:33:00.283Z,95555.88
2018-04-22T07:35:32.548Z,95552.88
2018-04-22T07:38:04.380Z,95554.68
2018-04-22T07:40:37.366Z,95557.00
2018-04-22T07:43:09.615Z,95558.41
2018-04-22T07:45:38.849Z,95555.23
2018-04-22T07:53:26.859Z,95551.57
2018-04-22T07:55:58.872Z,95553.30
2018-04-22T07:58:31.279Z,95550.44
2018-04-22T08:01:00.322Z,95552.67
2018-04-22T08:03:32.117Z,95557.05
2018-04-22T08:06:05.165Z,95559.83
2018-04-22T08:11:14.196Z,95559.73
2018-04-22T08:16:25.774Z,95556.83
2018-04-22T08:18:57.728Z,95551.83
2018-04-22T08:21:31.315Z,95553.86
2018-04-22T08:24:02.908Z,95554.23
2018-04-22T08:26:34.827Z,95548.35
2018-04-22T08:29:07.608Z,95548.36
2018-04-22T08:31:41.066Z,95552.17
2018-04-22T08:34:12.033Z,95550.48
2018-04-22T08:36:46.816Z,95545.25
2018-04-22T08:39:20.579Z,95544.14
2018-04-22T08:41:52.827Z,95545.31
2018-04-22T08:44:24.325Z,95550.36
2018-04-22T08:49:33.605Z,95550.66
2018-04-22T08:52:05.904Z,95543.77
2018-04-22T08:54:38.937Z,95544.02
2018-04-22T08:57:12.655Z,95547.09
2018-04-22T08:59:45.259Z,95542.81
2018-04-22T09:02:20.209Z,95544.55
2018-04-22T09:04:51.290Z,95538.74
2018-04-22T09:07:24.365Z,95535.67
2018-04-22T09:09:55.278Z,95528.34
2018-04-22T09:12:28.282Z,95525.85
2018-04-22T09:15:01.153Z,95527.86
2018-04-22T09:20:09.637Z,95519.90
2018-04-22T09:22:42.253Z,95524.61
2018-04-22T09:25:14.597Z,95516.75
2018-04-22T09:27:49.464Z,95518.10
2018-04-22T09:30:24.322Z,95514.14
2018-04-22T09:32:57.665Z,95509.94
2018-04-22T09:38:05.561Z,95507.73
2018-04-22T09:40:37.845Z,95503.80
2018-04-22T09:43:09.091Z,95504.29
2018-04-22T09:45:40.542Z,95503.42
2018-04-22T09:48:09.630Z,95500.03
2018-04-22T09:50:41.547Z,95495.59
2018-04-22T09:53:12.600Z,95495.46
2018-04-22T09:55:44.434Z,95492.86
2018-04-22T09:58:15.960Z,95485.11
2018-04-22T10:13:53.514Z,95474.86
2018-04-22T10:16:25.946Z,95474.63
2018-04-22T10:18:57.267Z,95481.08
2018-04-22T10:21:29.876Z,95479.72
2018-04-22T10:24:01.856Z,95473.92
2018-04-22T10:26:33.624Z,95472.48
2018-04-22T10:29:05.179Z,95469.28
2018-04-22T10:31:36.913Z,95459.08
2018-04-22T10:34:05.947Z,95458.44
2018-04-22T10:36:37.131Z,95456.69
2018-04-22T10:39:08.553Z,95454.58
2018-04-22T10:41:40.566Z,95450.27
2018-04-22T10:44:14.127Z,95446.45
2018-04-22T10:46:47.337Z,95448.97
2018-04-22T10:49:20.992Z,95442.16
2018-04-22T10:51:55.774Z,95440.75
2018-04-22T10:54:27.513Z,95434.73
2018-04-22T10:57:00.093Z,95437.58
2018-04-22T10:59:31.541Z,95432.33
2018-04-22T11:02:03.200Z,95438.72
2018-04-22T11:04:35.850Z,95427.90
2018-04-22T11:07:07.158Z,95425.48
2018-04-22T11:12:16.838Z,95424.27
2018-04-22T11:14:49.386Z,95420.83
2018-04-22T11:17:22.096Z,95418.92
2018-04-22T11:19:53.604Z,95412.52
2018-04-22T11:22:22.786Z,95414.88
2018-04-22T11:24:51.833Z,95412.08
2018-04-22T11:27:20.941Z,95422.69
2018-04-22T11:29:51.022Z,95424.84
2018-04-22T11:32:20.054Z,95418.80
2018-04-22T11:34:50.501Z,95416.84
2018-04-22T11:37:19.572Z,95420.69
2018-04-22T11:39:53.045Z,95420.08
2018-04-22T11:45:00.432Z,95413.50
2018-04-22T11:47:32.248Z,95413.86
2018-04-22T11:50:06.846Z,95413.44
2018-04-22T11:52:38.211Z,95415.07
2018-04-22T11:55:09.902Z,95411.47
2018-04-22T11:57:44.416Z,95415.85
2018-04-22T12:00:16.361Z,95413.30
2018-04-22T12:02:48.670Z,95408.71
2018-04-22T12:05:21.796Z,95409.50
2018-04-22T12:10:32.789Z,95404.84
2018-04-22T12:13:04.408Z,95401.09
2018-04-22T12:15:36.367Z,95403.33
2018-04-22T12:18:07.972Z,95408.83
2018-04-22T12:20:40.012Z,95410.83
2018-04-22T12:25:45.158Z,95405.31
2018-04-22T12:28:17.167Z,95396.59
2018-04-22T12:30:49.228Z,95397.77
2018-04-22T12:33:20.011Z,95395.77
2018-04-22T12:35:51.506Z,95397.60
2018-04-22T12:38:23.228Z,95393.48
2018-04-22T12:40:56.604Z,95385.06
2018-04-22T12:43:29.117Z,95378.71
2018-04-22T12:46:02.311Z,95378.20
2018-04-22T12:48:33.356Z,95376.95
2018-04-22T12:51:06.547Z,95375.25
2018-04-22T12:53:38.677Z,95384.66
2018-04-22T12:56:11.893Z,95386.43
2018-04-22T12:58:43.389Z,95383.41
2018-04-22T13:01:15.876Z,95378.95
2018-04-22T13:06:25.134Z,95372.50
2018-04-22T13:11:34.134Z,95363.62
2018-04-22T13:14:05.676Z,95360.42
2018-04-22T13:16:37.212Z,95356.97
2018-04-22T13:19:08.631Z,95354.05
2018-04-22T13:21:39.981Z,95350.73
2018-04-22T13:24:12.311Z,95349.08
2018-04-22T13:29:19.300Z,95349.31
2018-04-22T13:31:51.129Z,95346.03
2018-04-22T13:34:22.441Z,95344.61
2018-04-22T13:36:53.812Z,95339.97
2018-04-22T13:39:25.523Z,95326.56
2018-04-22T13:41:57.420Z,95329.80
2018-04-22T13:44:29.230Z,95323.33
2018-04-22T13:47:01.074Z,95322.55
2018-04-22T13:49:33.213Z,95320.25
2018-04-22T13:52:05.226Z,95311.09
2018-04-22T13:54:36.841Z,95310.53
2018-04-22T13:57:09.675Z,95311.74
2018-04-22T13:59:41.925Z,95308.84
2018-04-22T14:02:14.196Z,95300.09
2018-04-22T14:04:44.883Z,95300.95
2018-04-22T14:07:16.840Z,95310.05
2018-04-22T14:09:48.582Z,95305.64
2018-04-22T14:12:19.508Z,95298.95
2018-04-22T14:14:53.266Z,95287.78
2018-04-22T14:17:25.079Z,95284.81
2018-04-22T14:19:57.157Z,95283.10
2018-04-22T14:22:29.427Z,95286.06
2018-04-22T14:25:03.940Z,95280.31
2018-04-22T14:27:36.470Z,95281.19
2018-04-22T14:30:09.842Z,95279.38
2018-04-22T14:32:42.437Z,95273.55
2018-04-22T14:37:50.844Z,95274.08
2018-04-22T14:40:22.331Z,95271.88
2018-04-22T14:42:55.975Z,95269.82
2018-04-22T14:45:45.397Z,95268.37
2018-04-22T14:48:17.738Z,95258.37
2018-04-22T14:50:49.092Z,95263.38
2018-04-22T14:53:20.658Z,95258.77
2018-04-22T14:58:29.002Z,95244.98
2018-04-22T15:00:58.098Z,95241.56
2018-04-22T15:03:29.978Z,95235.43
2018-04-22T15:11:18.298Z,95234.16
2018-04-22T15:13:50.549Z,95236.84
2018-04-22T15:16:21.925Z,95234.28
2018-04-22T15:18:52.801Z,95227.44
2018-04-22T15:24:00.749Z,95233.78
2018-04-22T15:26:29.817Z,95228.95
2018-04-22T15:29:01.877Z,95233.23
2018-04-22T15:31:33.128Z,95233.48
2018-04-22T15:34:04.326Z,95236.43
2018-04-22T15:36:35.945Z,95239.22
2018-04-22T15:39:10.688Z,95238.15
2018-04-22T15:41:42.838Z,95238.72
2018-04-22T15:44:14.671Z,95235.30
2018-04-22T15:46:46.122Z,95234.38
2018-04-22T15:49:17.241Z,95230.37
2018-04-22T15:51:48.016Z,95229.66
2018-04-22T15:54:21.570Z,95233.49
2018-04-22T15:56:53.425Z,95231.18
2018-04-22T15:59:26.050Z,95232.70
2018-04-22T16:01:58.262Z,95229.96
2018-04-22T16:04:32.088Z,95230.55
2018-04-22T16:09:49.429Z,95227.10
2018-04-22T16:12:28.082Z,95226.25
2018-04-22T16:14:59.944Z,95230.33
2018-04-22T16:17:33.047Z,95228.75
2018-04-22T16:22:42.594Z,95234.14
2018-04-22T16:25:14.800Z,95240.70
2018-04-22T16:27:47.371Z,95235.61
2018-04-22T16:30:19.437Z,95240.14
2018-04-22T16:32:51.265Z,95244.40
2018-04-22T16:35:24.608Z,95238.20
2018-04-22T16:40:32.503Z,95239.82
2018-04-22T16:43:04.693Z,95234.39
2018-04-22T16:45:36.143Z,95236.94
2018-04-22T16:48:07.671Z,95241.95
2018-04-22T16:53:17.743Z,95238.29
2018-04-22T16:55:49.410Z,95239.19
2018-04-22T16:58:22.509Z,95236.53
2018-04-22T17:00:54.787Z,95238.98
2018-04-22T17:03:27.251Z,95238.16
2018-04-22T17:06:00.870Z,95236.73
2018-04-22T17:08:31.427Z,95240.93
2018-04-22T17:11:02.299Z,95244.06
2018-04-22T17:13:32.346Z,95244.41
2018-04-22T17:16:02.095Z,95244.45
2018-04-22T17:18:33.131Z,95249.52
2018-04-22T17:21:06.952Z,95256.83
2018-04-22T17:26:17.286Z,95258.50
2018-04-22T17:28:49.458Z,95261.52
2018-04-22T17:31:22.104Z,95261.72
2018-04-22T17:33:55.846Z,95262.95
2018-04-22T17:36:30.280Z,95263.15
2018-04-22T17:41:39.558Z,95265.45
2018-04-22T17:44:12.822Z,95267.79
2018-04-22T17:46:44.854Z,95269.86
2018-04-22T17:49:17.825Z,95272.71
2018-04-22T17:51:50.116Z,95277.91
2018-04-22T17:57:01.436Z,95284.77
2018-04-22T17:59:33.359Z,95283.06
2018-04-22T18:02:05.608Z,95287.98
2018-04-22T18:04:37.855Z,95285.75
2018-04-22T18:07:09.882Z,95288.88
2018-04-22T18:09:41.153Z,95294.48
2018-04-22T18:12:14.606Z,95296.17
2018-04-22T18:14:46.141Z,95302.61
2018-04-22T18:17:18.949Z,95306.55
2018-04-22T18:19:50.903Z,95307.88
2018-04-22T18:22:22.514Z,95309.47
2018-04-22T18:25:00.209Z,95307.29
2018-04-22T18:27:41.157Z,95308.25
2018-04-22T18:32:52.458Z,95311.16
2018-04-22T18:35:25.859Z,95316.30
2018-04-22T18:37:57.533Z,95317.63
2018-04-22T18:40:30.853Z,95319.24
2018-04-22T18:43:03.192Z,95325.58
2018-04-22T18:45:35.183Z,95325.06
2018-04-22T18:48:07.351Z,95327.47
2018-04-22T18:53:18.478Z,95330.98
2018-04-22T18:55:57.583Z,95333.06
2018-04-22T19:01:05.385Z,95340.67
2018-04-22T19:03:44.052Z,95343.39
2018-04-22T19:08:57.420Z,95347.72
2018-04-22T19:11:33.257Z,95352.53
2018-04-22T19:16:43.272Z,95355.14
2018-04-22T19:19:16.581Z,95352.67
2018-04-22T19:21:51.011Z,95352.17
2018-04-22T19:27:16.210Z,95355.69
2018-04-22T19:29:50.935Z,95359.88
2018-04-22T19:35:01.158Z,95356.45
2018-04-22T19:37:34.538Z,95362.94
2018-04-22T19:40:09.040Z,95366.17
2018-04-22T19:42:41.888Z,95368.03
2018-04-22T19:45:20.421Z,95366.42
2018-04-22T19:47:55.241Z,95365.59
2018-04-22T19:50:27.850Z,95363.65
2018-04-22T19:55:55.292Z,95361.63
2018-04-22T20:01:05.089Z,95372.88
2018-04-22T20:06:16.194Z,95374.74
2018-04-22T20:08:48.292Z,95378.69
2018-04-22T20:11:20.903Z,95374.34
2018-04-22T20:13:55.978Z,95370.55
2018-04-22T20:16:29.607Z,95369.03
2018-04-22T20:19:04.341Z,95370.98
2018-04-22T20:21:36.564Z,95373.84
2018-04-22T20:24:07.504Z,95377.19
2018-04-22T20:29:21.025Z,95386.95
2018-04-22T20:31:53.233Z,95391.25
2018-04-22T20:34:28.680Z,95389.61
2018-04-22T20:37:02.501Z,95389.02
2018-04-22T20:39:43.145Z,95387.88
2018-04-22T20:42:14.168Z,95387.16
2018-04-22T20:44:45.529Z,95382.50
2018-04-22T20:47:17.341Z,95380.69
2018-04-22T20:49:49.690Z,95379.19
2018-04-22T20:52:31.486Z,95382.79
2018-04-22T20:55:03.707Z,95388.19
2018-04-22T20:57:35.657Z,95389.97
2018-04-22T21:00:07.583Z,95394.64
2018-04-22T21:02:39.388Z,95387.09
2018-04-22T21:05:11.343Z,95385.91
2018-04-22T21:07:42.774Z,95385.17
2018-04-22T21:12:54.821Z,95381.81
2018-04-22T21:15:28.092Z,95380.27
2018-04-22T21:17:59.118Z,95379.97
2018-04-22T21:20:30.498Z,95377.56
2018-04-22T21:23:02.574Z,95375.81
2018-04-22T21:25:35.555Z,95375.72
2018-04-22T21:28:07.130Z,95382.31
2018-04-22T21:30:39.431Z,95379.94
2018-04-22T21:33:10.992Z,95379.04
2018-04-22T21:35:43.212Z,95378.97
2018-04-22T21:38:14.421Z,95381.72
2018-04-22T21:40:47.543Z,95375.16
2018-04-22T21:43:19.193Z,95374.77
2018-04-22T21:48:27.787Z,95378.08
2018-04-22T21:50:59.980Z,95380.59
2018-04-22T21:53:30.594Z,95380.48
2018-04-22T21:56:03.064Z,95382.55
2018-04-22T21:58:33.856Z,95386.36
2018-04-22T22:01:05.275Z,95383.60
2018-04-22T22:03:36.782Z,95385.61
2018-04-22T22:06:08.908Z,95386.05
2018-04-22T22:08:40.574Z,95385.63
2018-04-22T22:11:11.730Z,95387.64
2018-04-22T22:13:43.679Z,95389.00
2018-04-22T22:16:15.408Z,95392.14
2018-04-22T22:18:44.563Z,95393.86
2018-04-22T22:21:16.605Z,95398.97
2018-04-22T22:23:48.552Z,95399.77
2018-04-22T22:26:17.701Z,95403.06
2018-04-22T22:28:49.028Z,95404.16
2018-04-22T22:31:20.808Z,95403.53
2018-04-22T22:33:55.352Z,95406.43
2018-04-22T22:36:26.657Z,95407.98
2018-04-22T22:38:59.007Z,95406.63
2018-04-22T22:41:32.155Z,95409.59
2018-04-22T22:44:01.811Z,95410.02
2018-04-22T22:46:34.706Z,95415.86
2018-04-22T22:49:07.178Z,95408.38
2018-04-22T22:51:39.706Z,95404.44
2018-04-22T22:54:11.843Z,95407.23
2018-04-22T22:56:40.882Z,95412.23
2018-04-22T22:59:09.959Z,95409.45
2018-04-22T23:04:15.197Z,95412.06
2018-04-22T23:06:49.396Z,95413.48
2018-04-22T23:09:22.187Z,95417.88
2018-04-22T23:14:29.268Z,95417.23
2018-04-22T23:17:02.213Z,95412.80
2018-04-22T23:19:36.777Z,95419.98
2018-04-22T23:22:05.831Z,95420.73
2018-04-22T23:24:38.143Z,95423.59
2018-04-22T23:27:10.543Z,95424.06
2018-04-22T23:29:43.908Z,95430.45
2018-04-22T23:32:17.653Z,95428.39
2018-04-22T23:34:50.383Z,95431.07
2018-04-22T23:37:25.590Z,95429.23
2018-04-22T23:39:57.478Z,95433.59
2018-04-22T23:45:07.675Z,95435.23
2018-04-22T23:47:39.818Z,95438.22
2018-04-22T23:50:12.658Z,95436.59
2018-04-22T23:52:45.124Z,95439.91
2018-04-22T23:55:18.038Z,95442.20
